Terminal Aerodrome Forecast
Issued by NWS Newport/Morehead City, NC

Home | Current Version | Previous Version | Graphics & Text | Print | Product List | Glossary On
Versions: 1 2 3 4 5 6 7 8 9 10 11 12 13 14 15 16 17
000
FTUS42 KMHX 310544
TAFEWN
TAF
KEWN 310544Z 3106/0106 00000KT P6SM SKC
     FM310830 00000KT 4SM BR SCT008 BKN025
     FM311200 18007KT P6SM SCT035=

USA.gov is the U.S. government's official web portal to all federal, state and local government web resources and services.